Terminal Aerodrome Forecast
Issued by NWS Grand Forks, ND

Home | Current Version | Previous Version | Graphics & Text | Print | Product List | Glossary On
Versions: 1 2 3 4 5 6 7 8 9 10 11 12 13 14 15 16 17 18 19 20
151
FTUS43 KFGF 251720
TAFGFK
TAF
KGFK 251720Z 2518/2618 01018G28KT P6SM OVC015
      TEMPO 2520/2523 OVC025
     FM260200 02017KT P6SM OVC020=

USA.gov is the U.S. government's official web portal to all federal, state and local government web resources and services.